createdAt,value
2023-04-21T00:02:08.972Z,100.00
2023-04-21T00:04:36.700Z,100.00
2023-04-21T00:07:04.457Z,100.00
2023-04-21T00:09:32.273Z,100.00
2023-04-21T00:11:59.864Z,100.00
2023-04-21T00:14:27.489Z,100.00
2023-04-21T00:16:55.043Z,100.00
2023-04-21T00:19:23.401Z,100.00
2023-04-21T00:21:51.310Z,100.00
2023-04-21T00:24:18.837Z,100.00
2023-04-21T00:26:46.462Z,100.00
2023-04-21T00:29:14.266Z,100.00
2023-04-21T00:31:42.223Z,100.00
2023-04-21T00:34:10.303Z,100.00
2023-04-21T00:36:37.896Z,100.00
2023-04-21T00:39:05.513Z,100.00
2023-04-21T00:41:34.819Z,100.00
2023-04-21T00:44:06.695Z,100.00
2023-04-21T00:46:35.903Z,100.00
2023-04-21T00:49:06.805Z,100.00
2023-04-21T00:51:35.968Z,100.00
2023-04-21T00:54:09.142Z,100.00
2023-04-21T00:56:37.013Z,100.00
2023-04-21T00:59:04.705Z,100.00
2023-04-21T01:01:33.912Z,100.00
2023-04-21T01:04:03.731Z,100.00
2023-04-21T01:06:33.738Z,100.00
2023-04-21T01:09:04.333Z,100.00
2023-04-21T01:11:31.993Z,100.00
2023-04-21T01:14:00.939Z,100.00
2023-04-21T01:16:29.153Z,100.00
2023-04-21T01:18:57.326Z,100.00
2023-04-21T01:21:26.621Z,100.00
2023-04-21T01:23:54.939Z,100.00
2023-04-21T01:26:23.069Z,100.00
2023-04-21T01:28:50.813Z,100.00
2023-04-21T01:31:20.652Z,100.00
2023-04-21T01:33:48.233Z,100.00
2023-04-21T01:36:17.605Z,100.00
2023-04-21T01:38:45.612Z,100.00
2023-04-21T01:41:13.344Z,100.00
2023-04-21T01:43:41.020Z,100.00
2023-04-21T01:46:08.791Z,100.00
2023-04-21T01:48:38.624Z,100.00
2023-04-21T01:51:07.288Z,100.00
2023-04-21T01:53:35.003Z,100.00
2023-04-21T01:56:02.815Z,100.00
2023-04-21T01:58:31.919Z,100.00
2023-04-21T02:00:59.499Z,100.00
2023-04-21T02:03:27.019Z,100.00
2023-04-21T02:05:54.851Z,100.00
2023-04-21T02:08:22.411Z,100.00
2023-04-21T02:10:50.111Z,100.00
2023-04-21T02:13:17.687Z,100.00
2023-04-21T02:15:45.456Z,100.00
2023-04-21T02:18:14.427Z,100.00
2023-04-21T02:20:42.006Z,100.00
2023-04-21T02:23:09.711Z,100.00
2023-04-21T02:25:37.343Z,100.00
2023-04-21T02:28:05.954Z,100.00
2023-04-21T02:30:34.836Z,100.00
2023-04-21T02:33:02.461Z,100.00
2023-04-21T02:35:30.630Z,100.00
2023-04-21T02:37:58.057Z,100.00
2023-04-21T02:40:25.792Z,100.00
2023-04-21T02:42:53.377Z,100.00
2023-04-21T02:45:21.116Z,100.00
2023-04-21T02:47:48.555Z,100.00
2023-04-21T02:50:16.229Z,100.00
2023-04-21T02:52:43.644Z,100.00
2023-04-21T02:55:11.326Z,100.00
2023-04-21T02:57:38.808Z,100.00
2023-04-21T03:00:08.957Z,100.00
2023-04-21T03:02:36.538Z,100.00
2023-04-21T03:05:04.105Z,100.00
2023-04-21T03:07:32.328Z,100.00
2023-04-21T03:09:59.965Z,100.00
2023-04-21T03:12:28.195Z,100.00
2023-04-21T03:14:55.769Z,100.00
2023-04-21T03:17:23.266Z,100.00
2023-04-21T03:19:51.146Z,100.00
2023-04-21T03:22:18.581Z,100.00
2023-04-21T03:24:46.135Z,100.00
2023-04-21T03:27:13.601Z,100.00
2023-04-21T03:29:41.650Z,100.00
2023-04-21T03:32:09.190Z,100.00
2023-04-21T03:34:37.585Z,100.00
2023-04-21T03:37:05.769Z,100.00
2023-04-21T03:39:33.419Z,100.00
2023-04-21T03:42:01.160Z,100.00
2023-04-21T03:44:29.780Z,100.00
2023-04-21T03:46:57.360Z,100.00
2023-04-21T03:49:24.913Z,100.00
2023-04-21T03:51:52.620Z,100.00
2023-04-21T03:54:20.282Z,100.00
2023-04-21T03:56:47.807Z,100.00
2023-04-21T03:59:15.307Z,100.00
2023-04-21T04:01:42.954Z,100.00
2023-04-21T04:04:10.812Z,100.00
2023-04-21T04:06:38.647Z,100.00
2023-04-21T04:09:06.255Z,100.00
2023-04-21T04:11:34.011Z,100.00
2023-04-21T04:14:01.543Z,100.00
2023-04-21T04:16:29.501Z,99.35
2023-04-21T04:18:57.435Z,100.00
2023-04-21T04:21:26.572Z,99.76
2023-04-21T04:23:54.224Z,100.00
2023-04-21T04:26:24.337Z,100.00
2023-04-21T04:28:53.098Z,99.74
2023-04-21T04:31:21.124Z,96.53
2023-04-21T04:33:48.691Z,95.62
2023-04-21T04:36:16.416Z,94.13
2023-04-21T04:38:45.656Z,94.13
2023-04-21T04:41:15.335Z,93.40
2023-04-21T04:43:43.787Z,94.82
2023-04-21T04:46:12.550Z,94.54
2023-04-21T04:48:40.392Z,93.12
2023-04-21T04:51:07.993Z,95.36
2023-04-21T04:53:35.554Z,93.84
2023-04-21T04:56:03.472Z,95.14
2023-04-21T04:58:31.123Z,94.75
2023-04-21T05:00:58.761Z,94.26
2023-04-21T05:03:26.379Z,94.77
2023-04-21T05:05:54.134Z,95.21
2023-04-21T05:08:21.825Z,94.88
2023-04-21T05:10:49.653Z,93.86
2023-04-21T05:13:17.700Z,93.80
2023-04-21T05:15:45.352Z,89.92
2023-04-21T05:18:12.755Z,90.78
2023-04-21T05:20:43.111Z,89.83
2023-04-21T05:23:10.623Z,87.16
2023-04-21T05:25:38.085Z,86.54
2023-04-21T05:28:05.678Z,84.92
2023-04-21T05:30:33.256Z,85.21
2023-04-21T05:33:00.922Z,85.68
2023-04-21T05:35:32.006Z,86.49
2023-04-21T05:37:59.493Z,87.15
2023-04-21T05:40:26.984Z,89.25
2023-04-21T05:42:54.298Z,86.37
2023-04-21T05:45:21.708Z,88.19
2023-04-21T05:47:49.293Z,89.17
2023-04-21T05:50:16.829Z,87.39
2023-04-21T05:52:44.336Z,86.58
2023-04-21T05:55:11.966Z,86.89
2023-04-21T05:57:39.692Z,85.79
2023-04-21T06:00:08.639Z,86.63
2023-04-21T06:02:36.362Z,87.20
2023-04-21T06:05:04.737Z,84.18
2023-04-21T06:07:32.227Z,87.91
2023-04-21T06:09:59.870Z,83.88
2023-04-21T06:12:27.311Z,83.67
2023-04-21T06:14:57.130Z,82.62
2023-04-21T06:17:25.161Z,86.19
2023-04-21T06:19:53.030Z,85.62
2023-04-21T06:22:20.597Z,85.98
2023-04-21T06:24:48.402Z,83.25
2023-04-21T06:27:15.993Z,83.41
2023-04-21T06:29:43.475Z,85.40
2023-04-21T06:32:12.061Z,86.22
2023-04-21T06:34:39.860Z,83.95
2023-04-21T06:37:07.475Z,85.21
2023-04-21T06:39:34.974Z,83.35
2023-04-21T06:42:02.783Z,81.15
2023-04-21T06:44:31.896Z,81.71
2023-04-21T06:46:59.416Z,80.16
2023-04-21T06:49:26.916Z,81.59
2023-04-21T06:51:54.258Z,81.88
2023-04-21T06:54:21.639Z,83.96
2023-04-21T06:56:50.872Z,84.84
2023-04-21T06:59:18.689Z,82.58
2023-04-21T07:01:48.641Z,83.38
2023-04-21T07:04:16.055Z,82.96
2023-04-21T07:06:43.794Z,80.78
2023-04-21T07:09:11.346Z,83.54
2023-04-21T07:11:38.748Z,83.59
2023-04-21T07:14:06.420Z,78.94
2023-04-21T07:16:33.866Z,79.68
2023-04-21T07:19:01.444Z,78.49
2023-04-21T07:21:31.693Z,76.27
2023-04-21T07:23:59.216Z,73.87
2023-04-21T07:26:26.820Z,74.83
2023-04-21T07:28:57.785Z,76.54
2023-04-21T07:31:25.458Z,75.90
2023-04-21T07:33:52.944Z,76.50
2023-04-21T07:36:20.684Z,74.93
2023-04-21T07:38:48.334Z,73.12
2023-04-21T07:41:15.896Z,74.12
2023-04-21T07:43:43.560Z,75.50
2023-04-21T07:46:12.714Z,75.18
2023-04-21T07:48:40.702Z,74.02
2023-04-21T07:51:08.070Z,73.79
2023-04-21T07:53:35.614Z,74.73
2023-04-21T07:56:03.017Z,74.01
2023-04-21T07:58:30.631Z,73.13
2023-04-21T08:00:58.190Z,72.93
2023-04-21T08:03:25.999Z,70.49
2023-04-21T08:05:54.202Z,70.09
2023-04-21T08:08:21.882Z,67.16
2023-04-21T08:10:49.462Z,68.51
2023-04-21T08:13:17.050Z,69.64
2023-04-21T08:15:44.706Z,67.57
2023-04-21T08:18:12.459Z,67.16
2023-04-21T08:20:40.108Z,66.85
2023-04-21T08:23:07.875Z,68.33
2023-04-21T08:25:35.778Z,67.05
2023-04-21T08:28:03.549Z,66.07
2023-04-21T08:30:31.447Z,65.68
2023-04-21T08:32:59.059Z,64.66
2023-04-21T08:35:26.745Z,65.42
2023-04-21T08:37:54.250Z,64.05
2023-04-21T08:40:35.638Z,62.75
2023-04-21T08:43:08.193Z,62.86
2023-04-21T08:45:36.070Z,63.73
2023-04-21T08:48:07.367Z,64.66
2023-04-21T08:50:36.647Z,64.31
2023-04-21T08:53:04.294Z,64.72
2023-04-21T08:55:32.820Z,62.94
2023-04-21T08:58:03.942Z,63.47
2023-04-21T09:00:31.420Z,62.06
2023-04-21T09:03:02.132Z,62.64
2023-04-21T09:05:33.754Z,62.61
2023-04-21T09:08:11.284Z,62.16
2023-04-21T09:10:53.297Z,60.57
2023-04-21T09:13:36.137Z,59.79
2023-04-21T09:16:15.774Z,59.37
2023-04-21T09:18:44.614Z,59.60
2023-04-21T09:21:15.684Z,59.32
2023-04-21T09:23:52.662Z,62.61
2023-04-21T09:26:24.705Z,60.52
2023-04-21T09:28:53.196Z,61.57
2023-04-21T09:31:28.150Z,60.39
2023-04-21T09:34:01.028Z,59.97
2023-04-21T09:36:31.394Z,61.06
2023-04-21T09:39:29.201Z,59.90
2023-04-21T09:41:51.594Z,59.58
2023-04-21T09:44:19.910Z,59.70
2023-04-21T09:46:57.191Z,59.53
2023-04-21T09:49:28.997Z,61.20
2023-04-21T09:52:17.539Z,60.70
2023-04-21T09:54:56.950Z,60.00
2023-04-21T09:57:26.247Z,57.96
2023-04-21T10:00:11.267Z,58.23
2023-04-21T10:02:51.390Z,59.33
2023-04-21T10:05:19.215Z,58.49
2023-04-21T10:07:48.451Z,57.89
2023-04-21T10:10:26.102Z,59.05
2023-04-21T10:12:54.341Z,58.94
2023-04-21T10:15:35.464Z,58.24
2023-04-21T10:18:21.513Z,58.36
2023-04-21T10:21:02.800Z,57.02
2023-04-21T10:23:43.206Z,58.34
2023-04-21T10:26:24.846Z,57.69
2023-04-21T10:29:06.710Z,57.36
2023-04-21T10:31:36.046Z,58.15
2023-04-21T10:34:10.678Z,58.30
2023-04-21T10:36:56.858Z,59.83
2023-04-21T10:39:52.163Z,60.51
2023-04-21T10:42:25.460Z,61.42
2023-04-21T10:44:57.206Z,62.33
2023-04-21T10:47:49.441Z,61.78
2023-04-21T10:50:23.512Z,62.03
2023-04-21T10:53:10.802Z,64.07
2023-04-21T10:55:39.252Z,63.19
2023-04-21T10:58:08.904Z,63.43
2023-04-21T11:00:40.152Z,63.48
2023-04-21T11:03:08.684Z,63.67
2023-04-21T11:05:39.985Z,63.42
2023-04-21T11:08:14.050Z,64.25
2023-04-21T11:10:52.341Z,64.32
2023-04-21T11:13:33.441Z,64.63
2023-04-21T11:16:06.097Z,64.70
2023-04-21T11:18:39.325Z,66.51
2023-04-21T11:21:18.574Z,65.59
2023-04-21T11:23:57.474Z,64.74
2023-04-21T11:26:39.600Z,63.60
2023-04-21T11:29:09.987Z,61.44
2023-04-21T11:31:41.151Z,61.93
2023-04-21T11:34:09.081Z,60.78
2023-04-21T11:36:40.459Z,61.00
2023-04-21T11:39:18.948Z,59.34
2023-04-21T11:41:51.004Z,59.84
2023-04-21T11:44:31.646Z,60.08
2023-04-21T11:46:59.661Z,60.62
2023-04-21T11:49:29.141Z,59.20
2023-04-21T11:51:57.089Z,58.61
2023-04-21T11:54:24.559Z,62.01
2023-04-21T11:56:54.100Z,64.87
2023-04-21T11:59:27.395Z,66.99
2023-04-21T12:01:55.405Z,67.84
2023-04-21T12:04:25.458Z,68.98
2023-04-21T12:07:02.591Z,68.72
2023-04-21T12:09:30.404Z,69.02
2023-04-21T12:11:58.389Z,68.05
2023-04-21T12:14:28.882Z,70.03
2023-04-21T12:16:57.953Z,69.48
2023-04-21T12:19:39.172Z,70.11
2023-04-21T12:22:22.537Z,69.33
2023-04-21T12:24:50.328Z,70.54
2023-04-21T12:27:18.867Z,69.93
2023-04-21T12:29:46.559Z,72.45
2023-04-21T12:32:14.885Z,71.92
2023-04-21T12:34:43.060Z,72.20
2023-04-21T12:37:11.112Z,71.10
2023-04-21T12:39:38.916Z,68.75
2023-04-21T12:42:07.089Z,69.26
2023-04-21T12:44:35.408Z,69.94
2023-04-21T12:47:03.456Z,68.69
2023-04-21T12:49:31.681Z,67.12
2023-04-21T12:51:59.717Z,67.29
2023-04-21T12:54:27.532Z,67.19
2023-04-21T12:56:55.517Z,64.45
2023-04-21T12:59:23.163Z,65.02
2023-04-21T13:01:51.508Z,66.46
2023-04-21T13:04:19.812Z,64.19
2023-04-21T13:06:47.638Z,65.84
2023-04-21T13:09:16.545Z,65.32
2023-04-21T13:11:44.211Z,65.05
2023-04-21T13:14:11.771Z,62.48
2023-04-21T13:16:40.489Z,63.31
2023-04-21T13:19:08.518Z,63.23
2023-04-21T13:21:36.224Z,61.94
2023-04-21T13:24:04.165Z,59.26
2023-04-21T13:26:35.240Z,59.08
2023-04-21T13:29:03.961Z,56.88
2023-04-21T13:31:32.050Z,56.77
2023-04-21T13:34:00.893Z,55.00
2023-04-21T13:36:29.028Z,54.81
2023-04-21T13:38:56.622Z,53.33
2023-04-21T13:41:24.065Z,52.68
2023-04-21T13:43:51.726Z,50.10
2023-04-21T13:46:20.052Z,49.00
2023-04-21T13:48:49.482Z,51.07
2023-04-21T13:51:18.828Z,49.55
2023-04-21T13:53:46.328Z,49.31
2023-04-21T13:56:14.135Z,49.81
2023-04-21T13:58:42.353Z,49.68
2023-04-21T14:01:09.988Z,50.66
2023-04-21T14:03:37.832Z,52.08
2023-04-21T14:06:05.906Z,52.58
2023-04-21T14:08:33.587Z,53.26
2023-04-21T14:11:01.012Z,53.53
2023-04-21T14:13:37.544Z,54.72
2023-04-21T14:16:10.356Z,56.33
2023-04-21T14:18:40.230Z,56.13
2023-04-21T14:21:07.637Z,58.10
2023-04-21T14:23:35.928Z,64.67
2023-04-21T14:26:06.914Z,70.84
2023-04-21T14:28:35.642Z,73.60
2023-04-21T14:31:04.022Z,77.54
2023-04-21T14:33:32.887Z,74.28
2023-04-21T14:36:01.357Z,80.09
2023-04-21T14:38:30.709Z,77.93
2023-04-21T14:40:58.585Z,75.64
2023-04-21T14:43:26.684Z,78.33
2023-04-21T14:45:55.139Z,86.76
2023-04-21T14:48:23.169Z,94.77
2023-04-21T14:50:51.052Z,93.56
2023-04-21T14:53:18.625Z,93.59
2023-04-21T14:55:46.260Z,89.98
2023-04-21T14:58:13.975Z,89.71
2023-04-21T15:00:41.836Z,88.30
2023-04-21T15:03:09.911Z,94.89
2023-04-21T15:05:38.267Z,96.62
2023-04-21T15:08:07.280Z,89.92
2023-04-21T15:10:35.708Z,87.06
2023-04-21T15:13:03.963Z,90.02
2023-04-21T15:15:31.774Z,86.55
2023-04-21T15:17:59.781Z,82.74
2023-04-21T15:20:43.134Z,81.80
2023-04-21T15:23:13.093Z,82.04
2023-04-21T15:25:41.656Z,83.60
2023-04-21T15:28:09.312Z,83.61
2023-04-21T15:30:38.357Z,84.39
2023-04-21T15:33:06.826Z,89.42
2023-04-21T15:35:34.878Z,88.09
2023-04-21T15:38:03.029Z,89.97
2023-04-21T15:40:31.613Z,91.00
2023-04-21T15:42:59.296Z,91.74
2023-04-21T15:45:27.489Z,91.08
2023-04-21T15:47:55.596Z,88.41
2023-04-21T15:50:23.563Z,87.02
2023-04-21T15:52:51.874Z,88.47
2023-04-21T15:55:20.975Z,88.16
2023-04-21T15:57:50.366Z,85.70
2023-04-21T16:00:18.264Z,84.32
2023-04-21T16:02:47.874Z,78.09
2023-04-21T16:05:16.476Z,75.88
2023-04-21T16:07:44.150Z,74.05
2023-04-21T16:10:11.950Z,70.68
2023-04-21T16:12:39.690Z,67.81
2023-04-21T16:15:23.185Z,66.54
2023-04-21T16:17:53.174Z,70.91
2023-04-21T16:20:20.888Z,73.46
2023-04-21T16:22:50.378Z,75.12
2023-04-21T16:25:19.133Z,73.72
2023-04-21T16:27:46.829Z,75.25
2023-04-21T16:30:14.594Z,76.08
2023-04-21T16:32:42.349Z,77.17
2023-04-21T16:35:11.106Z,80.09
2023-04-21T16:37:40.106Z,79.91
2023-04-21T16:40:10.968Z,81.15
2023-04-21T16:42:38.772Z,81.92
2023-04-21T16:45:07.148Z,83.09
2023-04-21T16:47:40.325Z,81.17
2023-04-21T16:50:10.176Z,82.57
2023-04-21T16:52:37.791Z,85.19
2023-04-21T16:55:05.853Z,84.10
2023-04-21T16:57:34.353Z,84.09
2023-04-21T17:00:05.677Z,85.27
2023-04-21T17:02:33.656Z,85.60
2023-04-21T17:05:01.334Z,87.13
2023-04-21T17:07:29.307Z,86.99
2023-04-21T17:09:56.975Z,86.13
2023-04-21T17:12:24.523Z,85.78
2023-04-21T17:14:52.094Z,86.05
2023-04-21T17:17:19.883Z,84.96
2023-04-21T17:19:47.885Z,84.77
2023-04-21T17:22:15.517Z,85.91
2023-04-21T17:24:52.347Z,86.61
2023-04-21T17:27:21.390Z,86.49
2023-04-21T17:29:48.997Z,87.71
2023-04-21T17:32:16.822Z,86.09
2023-04-21T17:34:44.503Z,86.39
2023-04-21T17:37:12.010Z,86.60
2023-04-21T17:39:39.736Z,87.37
2023-04-21T17:42:07.232Z,88.70
2023-04-21T17:44:35.192Z,88.54
2023-04-21T17:47:07.641Z,87.84
2023-04-21T17:49:36.517Z,87.61
2023-04-21T17:52:05.111Z,87.81
2023-04-21T17:54:32.768Z,87.98
2023-04-21T17:57:01.375Z,87.94
2023-04-21T17:59:29.100Z,87.21
2023-04-21T18:01:58.318Z,87.81
2023-04-21T18:04:26.795Z,87.41
2023-04-21T18:06:54.459Z,87.95
2023-04-21T18:09:22.172Z,88.67
2023-04-21T18:11:49.602Z,88.96
2023-04-21T18:14:17.425Z,88.77
2023-04-21T18:16:44.988Z,88.36
2023-04-21T18:19:12.763Z,89.17
2023-04-21T18:21:40.439Z,89.92
2023-04-21T18:24:07.898Z,90.81
2023-04-21T18:26:35.560Z,90.11
2023-04-21T18:29:03.152Z,90.18
2023-04-21T18:31:32.183Z,89.38
2023-04-21T18:34:00.124Z,90.61
2023-04-21T18:36:29.427Z,90.40
2023-04-21T18:38:58.265Z,90.16
2023-04-21T18:41:27.008Z,90.55
2023-04-21T18:43:54.779Z,91.02
2023-04-21T18:46:22.432Z,92.49
2023-04-21T18:48:49.997Z,91.48
2023-04-21T18:51:17.528Z,91.63
2023-04-21T18:53:45.949Z,91.18
2023-04-21T18:56:13.474Z,91.92
2023-04-21T18:58:41.012Z,91.06
2023-04-21T19:01:08.512Z,91.05
2023-04-21T19:03:36.206Z,91.80
2023-04-21T19:06:03.951Z,91.18
2023-04-21T19:08:42.140Z,90.89
2023-04-21T19:11:13.166Z,90.93
2023-04-21T19:13:40.752Z,92.02
2023-04-21T19:16:11.384Z,92.32
2023-04-21T19:18:39.078Z,92.23
2023-04-21T19:21:09.824Z,91.85
2023-04-21T19:23:37.423Z,91.71
2023-04-21T19:26:05.666Z,91.07
2023-04-21T19:28:33.639Z,92.57
2023-04-21T19:31:02.624Z,91.78
2023-04-21T19:33:30.716Z,91.84
2023-04-21T19:35:58.765Z,91.32
2023-04-21T19:38:26.953Z,91.15
2023-04-21T19:40:57.907Z,92.19
2023-04-21T19:43:26.457Z,92.16
2023-04-21T19:45:54.434Z,92.67
2023-04-21T19:48:22.491Z,93.43
2023-04-21T19:50:50.213Z,93.59
2023-04-21T19:53:18.271Z,93.20
2023-04-21T19:55:46.344Z,94.24
2023-04-21T19:58:22.092Z,93.63
2023-04-21T20:00:56.481Z,93.90
2023-04-21T20:03:24.318Z,93.49
2023-04-21T20:05:52.203Z,94.46
2023-04-21T20:08:20.126Z,93.96
2023-04-21T20:10:48.038Z,93.85
2023-04-21T20:13:15.990Z,93.58
2023-04-21T20:15:43.909Z,94.02
2023-04-21T20:18:12.532Z,93.60
2023-04-21T20:20:40.318Z,93.57
2023-04-21T20:23:08.213Z,93.86
2023-04-21T20:25:36.072Z,93.49
2023-04-21T20:28:03.672Z,93.53
2023-04-21T20:30:31.334Z,93.47
2023-04-21T20:32:59.062Z,93.61
2023-04-21T20:35:29.964Z,93.29
2023-04-21T20:37:58.091Z,93.31
2023-04-21T20:40:26.093Z,93.32
2023-04-21T20:42:54.042Z,93.46
2023-04-21T20:45:22.051Z,93.81
2023-04-21T20:47:50.535Z,93.21
2023-04-21T20:50:18.330Z,93.23
2023-04-21T20:52:46.275Z,94.09
2023-04-21T20:55:14.229Z,93.99
2023-04-21T20:57:42.103Z,93.42
2023-04-21T21:00:10.642Z,92.75
2023-04-21T21:02:39.246Z,93.56
2023-04-21T21:05:07.454Z,94.00
2023-04-21T21:07:35.622Z,93.88
2023-04-21T21:10:04.145Z,94.41
2023-04-21T21:12:32.180Z,94.02
2023-04-21T21:14:59.875Z,93.84
2023-04-21T21:17:28.017Z,93.63
2023-04-21T21:19:55.895Z,93.50
2023-04-21T21:22:23.887Z,93.17
2023-04-21T21:24:52.108Z,93.52
2023-04-21T21:27:20.069Z,93.23
2023-04-21T21:29:47.742Z,92.78
2023-04-21T21:32:19.073Z,92.80
2023-04-21T21:34:47.033Z,92.58
2023-04-21T21:37:14.825Z,92.38
2023-04-21T21:39:42.359Z,92.68
2023-04-21T21:42:09.986Z,93.11
2023-04-21T21:44:37.786Z,93.00
2023-04-21T21:47:05.646Z,93.24
2023-04-21T21:49:33.295Z,93.81
2023-04-21T21:52:01.975Z,93.78
2023-04-21T21:54:29.501Z,94.36
2023-04-21T21:56:58.318Z,94.18
2023-04-21T21:59:26.157Z,94.41
2023-04-21T22:01:53.894Z,94.42
2023-04-21T22:04:22.013Z,94.34
2023-04-21T22:06:50.158Z,94.13
2023-04-21T22:09:18.119Z,94.19
2023-04-21T22:11:45.781Z,94.13
2023-04-21T22:14:21.865Z,94.54
2023-04-21T22:16:51.923Z,94.61
2023-04-21T22:19:20.125Z,94.38
2023-04-21T22:21:47.675Z,94.90
2023-04-21T22:24:15.246Z,94.72
2023-04-21T22:26:47.250Z,94.56
2023-04-21T22:29:14.899Z,94.42
2023-04-21T22:31:42.569Z,94.47
2023-04-21T22:34:10.106Z,94.09
2023-04-21T22:36:37.575Z,94.20
2023-04-21T22:39:05.403Z,93.85
2023-04-21T22:41:33.038Z,93.80
2023-04-21T22:44:00.596Z,93.53
2023-04-21T22:46:31.598Z,93.48
2023-04-21T22:49:01.876Z,92.93
2023-04-21T22:51:31.741Z,92.76
2023-04-21T22:53:59.851Z,92.86
2023-04-21T22:56:29.043Z,92.71
2023-04-21T22:58:57.177Z,92.50
2023-04-21T23:01:24.635Z,92.02
2023-04-21T23:03:52.377Z,92.35
2023-04-21T23:06:20.005Z,92.30
2023-04-21T23:08:47.594Z,92.07
2023-04-21T23:11:15.122Z,91.28
2023-04-21T23:13:42.690Z,91.86
2023-04-21T23:16:10.450Z,91.64
2023-04-21T23:18:37.825Z,91.15
2023-04-21T23:21:05.312Z,91.26
2023-04-21T23:23:32.814Z,91.72
2023-04-21T23:26:00.308Z,91.40
2023-04-21T23:28:27.934Z,90.43
2023-04-21T23:30:55.586Z,91.01
2023-04-21T23:33:23.281Z,90.94
2023-04-21T23:35:51.652Z,91.15
2023-04-21T23:38:19.115Z,90.71
2023-04-21T23:40:46.705Z,90.72
2023-04-21T23:43:14.674Z,90.60
2023-04-21T23:45:42.129Z,90.81
2023-04-21T23:48:09.866Z,90.96
2023-04-21T23:50:37.747Z,90.55
2023-04-21T23:53:05.516Z,91.13
2023-04-21T23:55:33.135Z,92.29
2023-04-21T23:58:00.561Z,92.10
